Time;durP1;ratioP1;P1;durP2;ratioP2;P2;SDS_P1;SDS_P2;PMS_P1;PMS_P2;Temp;Humidity;BMP_temperature;BMP_pressure;BME280_temperature;BME280_humidity;BME280_pressure;Samples;Min_cycle;Max_cycle;Signal;HPM_P1;HPM_P2
2021/12/17 00:04:39;;;;;;;18.92;10.38;;;;;;;;;;4960401;28;20027;-68
2021/12/17 00:07:07;;;;;;;18.02;10.75;;;;;;;;;;4965060;28;20074;-67
2021/12/17 00:09:32;;;;;;;17.73;10.40;;;;;;;;;;4962544;28;20106;-68
2021/12/17 00:11:58;;;;;;;21.10;11.18;;;;;;;;;;4963471;28;20041;-67
2021/12/17 00:14:28;;;;;;;28.08;10.20;;;;;;;;;;4962984;28;20043;-67
2021/12/17 00:16:55;;;;;;;15.85;10.45;;;;;;;;;;4963430;28;20145;-67
2021/12/17 00:49:00;;;;;;;21.52;11.77;;;;;;;;;;4967327;28;20022;-68
2021/12/17 00:54:08;;;;;;;16.63;10.30;;;;;;;;;;4970235;28;20586;-68
2021/12/17 00:56:34;;;;;;;16.77;10.27;;;;;;;;;;4969360;28;20031;-68
2021/12/17 00:58:59;;;;;;;20.58;11.40;;;;;;;;;;4970942;28;20046;-68
2021/12/17 01:01:25;;;;;;;21.83;12.73;;;;;;;;;;4964507;28;20086;-68
2021/12/17 01:03:50;;;;;;;18.73;11.05;;;;;;;;;;4962466;28;20030;-67
2021/12/17 01:06:15;;;;;;;19.50;11.27;;;;;;;;;;4965547;28;20110;-68
2021/12/17 01:08:41;;;;;;;20.58;12.10;;;;;;;;;;4961303;28;20106;-68
2021/12/17 01:11:06;;;;;;;18.55;11.30;;;;;;;;;;4963216;28;20110;-68
2021/12/17 01:13:31;;;;;;;18.02;11.65;;;;;;;;;;4961869;28;20030;-68
2021/12/17 01:15:57;;;;;;;21.10;11.25;;;;;;;;;;4980940;28;20058;-68
2021/12/17 01:18:32;;;;;;;17.25;11.18;;;;;;;;;;4963750;28;20509;-68
2021/12/17 01:21:24;;;;;;;20.92;11.13;;;;;;;;;;4974487;28;20026;-68
2021/12/17 01:24:10;;;;;;;18.48;11.60;;;;;;;;;;4965021;28;20023;-68
2021/12/17 01:40:50;;;;;;;19.27;11.02;;;;;;;;;;4969247;28;20022;-68
2021/12/17 01:43:02;;;;;;;21.83;11.95;;;;;;;;;;4965328;28;20498;-68
2021/12/17 01:45:31;;;;;;;19.23;11.55;;;;;;;;;;4962451;28;20041;-68
2021/12/17 01:48:00;;;;;;;19.92;11.88;;;;;;;;;;4966634;28;20062;-68
2021/12/17 02:01:21;;;;;;;17.17;10.38;;;;;;;;;;4962759;28;20104;-68
2021/12/17 02:03:46;;;;;;;14.98;9.63;;;;;;;;;;4964384;28;20030;-68
2021/12/17 02:06:12;;;;;;;17.02;10.70;;;;;;;;;;4966116;28;20029;-68
2021/12/17 02:08:37;;;;;;;17.83;11.32;;;;;;;;;;4969240;28;20035;-68
2021/12/17 02:19:42;;;;;;;19.05;10.45;;;;;;;;;;4974861;28;20041;-68
2021/12/17 02:32:42;;;;;;;14.57;10.05;;;;;;;;;;4966944;28;20053;-68
2021/12/17 02:37:34;;;;;;;12.75;9.20;;;;;;;;;;4967415;28;20121;-68
2021/12/17 02:45:32;;;;;;;13.90;9.30;;;;;;;;;;4970076;28;20492;-68
2021/12/17 02:45:41;;;;;;;16.20;9.70;;;;;;;;;;4965746;28;20117;-68
2021/12/17 02:48:10;;;;;;;13.88;9.70;;;;;;;;;;4968027;28;20027;-68
2021/12/17 02:50:38;;;;;;;14.63;9.80;;;;;;;;;;4967492;28;20030;-68
2021/12/17 02:53:07;;;;;;;16.67;10.65;;;;;;;;;;4971485;28;20497;-68
2021/12/17 02:55:33;;;;;;;17.05;10.57;;;;;;;;;;4969600;28;20030;-68
2021/12/17 02:57:58;;;;;;;14.55;8.85;;;;;;;;;;4967513;28;20570;-68
2021/12/17 03:00:23;;;;;;;13.30;8.75;;;;;;;;;;4968816;28;20108;-68
2021/12/17 03:02:49;;;;;;;14.40;9.25;;;;;;;;;;4962634;28;20441;-68
2021/12/17 03:05:14;;;;;;;12.65;8.98;;;;;;;;;;4964402;28;20038;-68
2021/12/17 03:07:43;;;;;;;15.10;10.02;;;;;;;;;;4964025;28;20051;-68
2021/12/17 03:10:10;;;;;;;14.32;9.52;;;;;;;;;;4961701;28;20038;-68
2021/12/17 03:12:51;;;;;;;16.45;10.05;;;;;;;;;;4980117;28;20031;-68
2021/12/17 03:15:24;;;;;;;13.23;9.00;;;;;;;;;;4965398;28;20078;-68
2021/12/17 03:23:40;;;;;;;13.27;9.27;;;;;;;;;;4933436;28;20567;-68
2021/12/17 03:26:15;;;;;;;14.48;9.45;;;;;;;;;;4963867;28;20924;-68
2021/12/17 03:28:41;;;;;;;15.95;9.68;;;;;;;;;;4961787;28;20073;-68
2021/12/17 03:31:07;;;;;;;17.17;10.70;;;;;;;;;;4960357;28;20365;-68
2021/12/17 03:33:33;;;;;;;15.48;10.20;;;;;;;;;;4964717;28;20038;-68
2021/12/17 03:35:58;;;;;;;15.45;9.65;;;;;;;;;;4965963;28;20037;-68
2021/12/17 03:38:24;;;;;;;14.15;9.20;;;;;;;;;;4962634;28;20069;-68
2021/12/17 03:40:53;;;;;;;15.85;10.13;;;;;;;;;;4961575;28;20145;-68
2021/12/17 03:43:23;;;;;;;15.05;9.80;;;;;;;;;;4964327;28;20022;-68
2021/12/17 03:45:49;;;;;;;14.70;9.73;;;;;;;;;;4965221;28;20030;-68
2021/12/17 03:48:14;;;;;;;13.80;8.95;;;;;;;;;;4964295;28;20065;-68
2021/12/17 03:50:39;;;;;;;14.25;9.05;;;;;;;;;;4963296;28;20041;-68
2021/12/17 03:53:05;;;;;;;13.68;9.02;;;;;;;;;;4966355;28;20418;-68
2021/12/17 03:55:30;;;;;;;13.25;9.25;;;;;;;;;;4962861;28;20486;-68
2021/12/17 03:57:59;;;;;;;15.77;8.88;;;;;;;;;;4961011;28;20030;-68
2021/12/17 04:00:24;;;;;;;13.07;8.85;;;;;;;;;;4975929;28;20442;-68
2021/12/17 04:02:49;;;;;;;15.43;9.25;;;;;;;;;;4962825;28;20038;-68
2021/12/17 04:05:15;;;;;;;15.07;8.63;;;;;;;;;;4960922;28;20406;-68
2021/12/17 04:07:40;;;;;;;12.18;8.98;;;;;;;;;;4962161;28;20483;-68
2021/12/17 04:10:05;;;;;;;17.60;10.35;;;;;;;;;;4964122;28;20243;-68
2021/12/17 04:12:47;;;;;;;36.72;10.40;;;;;;;;;;4963598;28;20413;-68
2021/12/17 04:15:14;;;;;;;16.80;9.48;;;;;;;;;;4962566;28;20027;-68
2021/12/17 04:17:52;;;;;;;16.55;10.07;;;;;;;;;;4964975;28;20451;-68
2021/12/17 04:20:18;;;;;;;23.60;9.82;;;;;;;;;;4965335;28;20035;-68
2021/12/17 04:22:43;;;;;;;19.75;9.80;;;;;;;;;;4966528;28;20851;-68
2021/12/17 04:25:09;;;;;;;23.60;9.95;;;;;;;;;;4964527;28;20533;-68
2021/12/17 04:27:34;;;;;;;15.13;9.35;;;;;;;;;;4961358;28;20142;-68
2021/12/17 04:29:59;;;;;;;23.98;9.10;;;;;;;;;;4961131;28;20478;-68
2021/12/17 04:32:25;;;;;;;15.10;9.93;;;;;;;;;;4963700;28;20505;-68
2021/12/17 04:34:50;;;;;;;42.38;9.35;;;;;;;;;;4963967;28;20046;-68
2021/12/17 04:37:15;;;;;;;18.52;9.57;;;;;;;;;;4963664;28;20031;-68
2021/12/17 04:39:41;;;;;;;33.80;9.45;;;;;;;;;;4963609;28;20037;-68
2021/12/17 04:42:14;;;;;;;17.02;8.60;;;;;;;;;;4961649;28;20030;-68
2021/12/17 04:44:47;;;;;;;17.90;10.52;;;;;;;;;;4965541;28;20051;-70
2021/12/17 04:57:47;;;;;;;14.55;9.50;;;;;;;;;;4963486;28;20049;-71
2021/12/17 05:00:24;;;;;;;12.30;8.30;;;;;;;;;;4966021;28;20034;-71
2021/12/17 05:02:53;;;;;;;11.85;8.48;;;;;;;;;;4966143;28;20058;-71
2021/12/17 05:05:19;;;;;;;11.98;8.73;;;;;;;;;;4963422;28;20027;-71
2021/12/17 05:07:53;;;;;;;11.60;7.78;;;;;;;;;;4963432;28;20098;-71
2021/12/17 05:18:49;;;;;;;10.13;7.65;;;;;;;;;;4929805;28;20046;-71
2021/12/17 05:21:15;;;;;;;11.57;8.07;;;;;;;;;;4926920;28;20051;-71
2021/12/17 05:23:44;;;;;;;13.02;8.00;;;;;;;;;;4917723;28;20049;-71
2021/12/17 05:26:11;;;;;;;13.00;8.20;;;;;;;;;;4958662;28;20402;-70
2021/12/17 05:28:37;;;;;;;12.02;8.38;;;;;;;;;;4958925;28;20046;-71
2021/12/17 05:31:02;;;;;;;11.80;8.27;;;;;;;;;;4961510;28;20406;-71
2021/12/17 05:33:27;;;;;;;11.65;7.68;;;;;;;;;;4974435;28;20110;-70
2021/12/17 05:35:53;;;;;;;10.75;7.78;;;;;;;;;;4961501;28;20130;-71
2021/12/17 05:38:20;;;;;;;11.25;8.13;;;;;;;;;;4958372;28;20027;-71
2021/12/17 05:40:45;;;;;;;11.68;8.32;;;;;;;;;;4942219;28;20474;-70
2021/12/17 05:43:10;;;;;;;11.95;7.75;;;;;;;;;;4960161;28;20041;-71
2021/12/17 05:45:48;;;;;;;11.90;8.75;;;;;;;;;;4974650;28;20141;-71
2021/12/17 05:48:14;;;;;;;12.43;8.85;;;;;;;;;;4955964;28;20958;-71
2021/12/17 05:50:41;;;;;;;12.50;8.45;;;;;;;;;;4977955;28;20038;-71
2021/12/17 05:53:07;;;;;;;14.40;9.20;;;;;;;;;;4960466;28;20105;-70
2021/12/17 05:55:32;;;;;;;13.10;8.35;;;;;;;;;;4974538;28;20023;-70
2021/12/17 05:57:58;;;;;;;12.38;8.63;;;;;;;;;;4961249;28;20032;-71
2021/12/17 06:00:23;;;;;;;14.85;8.63;;;;;;;;;;4958114;28;20039;-71
2021/12/17 06:02:49;;;;;;;13.73;9.75;;;;;;;;;;4960278;28;20073;-71
2021/12/17 06:05:14;;;;;;;15.05;9.02;;;;;;;;;;4949752;28;20050;-71
2021/12/17 06:07:40;;;;;;;16.25;9.43;;;;;;;;;;4958905;28;20425;-71
2021/12/17 06:10:06;;;;;;;15.65;9.32;;;;;;;;;;4959887;28;20507;-71
2021/12/17 06:12:31;;;;;;;14.07;8.98;;;;;;;;;;4957404;28;20034;-71
2021/12/17 06:14:56;;;;;;;12.15;8.38;;;;;;;;;;4958676;28;20035;-71
2021/12/17 06:17:22;;;;;;;11.75;8.80;;;;;;;;;;4956285;28;20066;-71
2021/12/17 06:19:47;;;;;;;12.95;8.57;;;;;;;;;;4961796;28;20457;-71
2021/12/17 06:22:14;;;;;;;12.18;8.93;;;;;;;;;;4959117;28;20027;-71
2021/12/17 06:24:44;;;;;;;13.48;9.20;;;;;;;;;;4956496;28;20564;-71
2021/12/17 06:27:09;;;;;;;14.27;9.52;;;;;;;;;;4959547;28;20031;-71
2021/12/17 06:29:34;;;;;;;15.10;10.05;;;;;;;;;;4957492;28;20385;-71
2021/12/17 06:32:00;;;;;;;13.43;9.25;;;;;;;;;;4955384;28;20165;-71
2021/12/17 06:34:25;;;;;;;12.82;8.90;;;;;;;;;;4958563;28;20123;-71
2021/12/17 06:36:50;;;;;;;14.88;9.93;;;;;;;;;;4960360;28;20121;-71
2021/12/17 06:39:16;;;;;;;13.55;9.38;;;;;;;;;;4956124;28;20114;-71
2021/12/17 06:41:42;;;;;;;15.35;9.57;;;;;;;;;;4957368;28;20113;-71
2021/12/17 06:44:11;;;;;;;18.48;10.23;;;;;;;;;;4957418;28;20090;-71
2021/12/17 06:46:52;;;;;;;12.13;8.95;;;;;;;;;;4964210;28;20118;-71
2021/12/17 06:49:28;;;;;;;13.48;9.05;;;;;;;;;;4964305;28;20429;-71
2021/12/17 06:54:55;;;;;;;13.90;9.02;;;;;;;;;;4967208;28;20117;-71
2021/12/17 07:21:32;;;;;;;;;;;;;;;;;;4967280;28;20035;-71
2021/12/17 07:34:15;;;;;;;12.40;8.05;;;;;;;;;;4964487;28;20476;-71
2021/12/17 07:36:44;;;;;;;11.23;7.97;;;;;;;;;;4963659;28;20236;-71
2021/12/17 07:39:10;;;;;;;12.10;8.43;;;;;;;;;;4977755;28;20039;-71
2021/12/17 07:41:35;;;;;;;13.38;8.27;;;;;;;;;;4962471;28;20027;-71
2021/12/17 07:44:01;;;;;;;12.30;7.65;;;;;;;;;;4965618;28;20027;-71
2021/12/17 07:46:27;;;;;;;11.70;8.10;;;;;;;;;;4970084;28;20031;-71
2021/12/17 07:48:52;;;;;;;10.50;7.35;;;;;;;;;;4966266;28;20029;-71
2021/12/17 07:51:18;;;;;;;12.63;7.75;;;;;;;;;;4965471;28;20117;-71
2021/12/17 07:53:44;;;;;;;9.80;7.32;;;;;;;;;;4964550;28;20078;-71
2021/12/17 07:56:12;;;;;;;9.77;6.95;;;;;;;;;;4963487;28;20393;-71
2021/12/17 07:58:38;;;;;;;9.15;6.80;;;;;;;;;;4962471;28;20027;-71
2021/12/17 08:01:04;;;;;;;8.45;6.13;;;;;;;;;;4963344;28;20381;-71
2021/12/17 08:03:29;;;;;;;9.57;6.50;;;;;;;;;;4961697;28;20058;-71
2021/12/17 08:05:54;;;;;;;7.13;5.78;;;;;;;;;;4961142;28;20058;-72
2021/12/17 08:08:20;;;;;;;11.30;6.57;;;;;;;;;;4963625;28;20120;-71
2021/12/17 08:10:47;;;;;;;9.85;6.20;;;;;;;;;;4961995;28;20456;-71
2021/12/17 08:13:19;;;;;;;7.40;5.63;;;;;;;;;;4962023;28;20022;-71
2021/12/17 08:15:57;;;;;;;9.98;6.38;;;;;;;;;;4963184;28;20054;-71
2021/12/17 08:18:47;;;;;;;7.35;5.53;;;;;;;;;;4964860;28;20034;-71
2021/12/17 08:31:25;;;;;;;9.63;7.18;;;;;;;;;;4961436;28;20413;-71
2021/12/17 08:33:50;;;;;;;8.05;6.10;;;;;;;;;;4961789;28;20118;-72
2021/12/17 08:36:15;;;;;;;7.97;6.22;;;;;;;;;;4960351;28;20023;-72
2021/12/17 08:38:44;;;;;;;8.45;5.80;;;;;;;;;;4961111;28;20042;-71
2021/12/17 08:41:10;;;;;;;9.70;5.80;;;;;;;;;;4959402;28;20041;-71
2021/12/17 08:43:35;;;;;;;7.50;5.53;;;;;;;;;;4961878;28;20026;-71
2021/12/17 08:46:01;;;;;;;9.00;6.20;;;;;;;;;;4961552;28;20035;-71
2021/12/17 08:48:26;;;;;;;8.82;5.65;;;;;;;;;;4962392;28;20027;-71
2021/12/17 08:50:51;;;;;;;8.48;5.72;;;;;;;;;;4960513;28;20447;-71
2021/12/17 08:53:17;;;;;;;8.45;6.00;;;;;;;;;;4963218;28;20492;-71
2021/12/17 08:55:42;;;;;;;9.15;5.90;;;;;;;;;;4962587;28;20031;-71
2021/12/17 08:58:12;;;;;;;8.27;5.70;;;;;;;;;;4963165;28;20037;-71
2021/12/17 09:00:37;;;;;;;8.40;5.80;;;;;;;;;;4963021;28;20043;-71
2021/12/17 09:03:02;;;;;;;7.60;6.00;;;;;;;;;;4961767;28;20054;-71
2021/12/17 09:05:28;;;;;;;6.97;5.47;;;;;;;;;;4960736;28;20111;-71
2021/12/17 09:07:53;;;;;;;6.78;5.32;;;;;;;;;;4963848;28;20034;-71
2021/12/17 09:10:22;;;;;;;9.15;6.13;;;;;;;;;;4959341;28;20030;-71
2021/12/17 09:12:48;;;;;;;7.63;5.32;;;;;;;;;;4959713;28;20099;-71
2021/12/17 09:15:13;;;;;;;7.13;5.72;;;;;;;;;;4959439;28;20054;-72
2021/12/17 09:17:38;;;;;;;7.90;5.38;;;;;;;;;;4960867;28;20038;-71
2021/12/17 09:20:06;;;;;;;6.93;5.30;;;;;;;;;;4959916;28;20074;-72
2021/12/17 09:22:32;;;;;;;8.27;5.15;;;;;;;;;;4959754;28;20075;-72
2021/12/17 09:24:57;;;;;;;11.82;5.55;;;;;;;;;;4949529;28;20106;-72
2021/12/17 09:27:22;;;;;;;12.02;5.60;;;;;;;;;;4960733;28;20127;-72
2021/12/17 09:29:48;;;;;;;6.38;5.18;;;;;;;;;;4961568;28;20118;-72
2021/12/17 09:32:13;;;;;;;8.90;6.28;;;;;;;;;;4958648;28;20130;-72
2021/12/17 09:34:38;;;;;;;10.90;6.97;;;;;;;;;;4961307;28;20051;-72
2021/12/17 09:37:04;;;;;;;11.88;6.80;;;;;;;;;;4961670;28;20725;-72
2021/12/17 09:39:29;;;;;;;9.85;7.03;;;;;;;;;;4961383;28;20117;-72
2021/12/17 09:41:55;;;;;;;10.93;6.70;;;;;;;;;;4961476;28;20114;-72
2021/12/17 09:44:21;;;;;;;10.00;6.90;;;;;;;;;;4961762;28;20724;-72
2021/12/17 09:46:46;;;;;;;9.05;7.00;;;;;;;;;;4962352;28;20031;-72
2021/12/17 09:49:12;;;;;;;10.32;6.82;;;;;;;;;;4962632;28;20069;-72
2021/12/17 09:51:37;;;;;;;10.63;7.15;;;;;;;;;;4963536;28;20541;-72
2021/12/17 09:54:02;;;;;;;10.45;6.97;;;;;;;;;;4961841;28;20036;-72
2021/12/17 09:56:28;;;;;;;10.38;7.43;;;;;;;;;;4963275;28;20102;-72
2021/12/17 09:58:53;;;;;;;8.80;6.40;;;;;;;;;;4964727;28;20033;-72
2021/12/17 10:01:19;;;;;;;8.07;6.53;;;;;;;;;;4962188;28;20039;-72
2021/12/17 10:03:45;;;;;;;7.88;6.35;;;;;;;;;;4961746;28;20089;-72
2021/12/17 10:06:22;;;;;;;7.93;6.13;;;;;;;;;;4963579;28;20046;-72
2021/12/17 10:08:48;;;;;;;7.78;6.13;;;;;;;;;;4962044;28;20049;-72
2021/12/17 10:11:14;;;;;;;8.07;6.55;;;;;;;;;;4960152;28;20078;-72
2021/12/17 10:13:39;;;;;;;10.73;6.15;;;;;;;;;;4959568;28;20026;-71
2021/12/17 10:16:09;;;;;;;6.78;5.38;;;;;;;;;;4958961;28;20053;-71
2021/12/17 10:18:34;;;;;;;6.50;5.03;;;;;;;;;;4959364;28;20030;-71
2021/12/17 10:21:01;;;;;;;9.20;5.65;;;;;;;;;;4960341;28;20031;-71
2021/12/17 10:23:28;;;;;;;7.70;4.88;;;;;;;;;;4960880;28;20619;-71
2021/12/17 10:25:53;;;;;;;6.57;4.82;;;;;;;;;;4958632;28;20414;-71
2021/12/17 10:28:18;;;;;;;16.02;5.47;;;;;;;;;;4975746;28;20027;-71
2021/12/17 10:30:46;;;;;;;11.13;5.45;;;;;;;;;;4963629;28;20494;-71
2021/12/17 10:33:17;;;;;;;7.22;4.97;;;;;;;;;;4961167;28;20081;-71
2021/12/17 10:35:48;;;;;;;5.15;4.00;;;;;;;;;;4961098;28;20062;-71
2021/12/17 10:38:15;;;;;;;5.32;4.22;;;;;;;;;;4962755;28;20077;-71
2021/12/17 10:41:17;;;;;;;5.05;4.40;;;;;;;;;;4976052;28;20059;-71
2021/12/17 10:43:39;;;;;;;20.50;6.95;;;;;;;;;;4963100;28;20094;-71
2021/12/17 10:46:21;;;;;;;9.75;4.85;;;;;;;;;;4961349;28;20034;-71
2021/12/17 10:48:54;;;;;;;11.98;5.70;;;;;;;;;;4976425;28;20121;-71
2021/12/17 10:54:10;;;;;;;8.20;5.38;;;;;;;;;;4961594;28;20039;-71
2021/12/17 10:56:36;;;;;;;5.38;4.40;;;;;;;;;;4961026;28;20086;-71
2021/12/17 10:59:05;;;;;;;5.38;4.28;;;;;;;;;;4962771;28;20557;-71
2021/12/17 11:01:35;;;;;;;4.28;3.85;;;;;;;;;;4961449;28;20043;-71
2021/12/17 11:04:07;;;;;;;7.95;4.47;;;;;;;;;;4960340;28;20042;-71
2021/12/17 11:06:51;;;;;;;7.03;4.18;;;;;;;;;;4961413;28;20039;-71
2021/12/17 11:09:34;;;;;;;5.93;4.13;;;;;;;;;;4962137;28;20023;-71
2021/12/17 11:12:14;;;;;;;4.60;3.50;;;;;;;;;;4944239;28;20039;-71
2021/12/17 11:14:40;;;;;;;3.60;2.92;;;;;;;;;;4961535;28;20038;-71
2021/12/17 11:17:05;;;;;;;3.72;3.22;;;;;;;;;;4961168;28;20034;-71
2021/12/17 11:19:31;;;;;;;3.47;3.17;;;;;;;;;;4965949;28;20046;-71
2021/12/17 11:21:57;;;;;;;3.63;3.17;;;;;;;;;;4961185;28;20034;-71
2021/12/17 11:24:22;;;;;;;3.00;2.80;;;;;;;;;;4975204;28;20031;-71
2021/12/17 11:26:48;;;;;;;2.83;2.63;;;;;;;;;;4960683;28;20086;-71
2021/12/17 11:29:13;;;;;;;2.92;2.63;;;;;;;;;;4959409;28;20031;-71
2021/12/17 11:31:38;;;;;;;4.93;2.78;;;;;;;;;;4942969;28;20074;-71
2021/12/17 11:34:04;;;;;;;3.05;2.75;;;;;;;;;;4979977;28;20065;-71
2021/12/17 11:36:29;;;;;;;2.95;2.65;;;;;;;;;;4948517;28;20062;-71
2021/12/17 11:39:10;;;;;;;2.72;2.53;;;;;;;;;;4967322;28;20065;-71
2021/12/17 11:41:52;;;;;;;2.90;2.70;;;;;;;;;;4969514;28;20497;-71
2021/12/17 11:44:19;;;;;;;2.92;2.72;;;;;;;;;;4965797;28;20034;-71
2021/12/17 11:47:03;;;;;;;3.70;2.60;;;;;;;;;;4963349;28;20070;-71
2021/12/17 11:49:34;;;;;;;2.78;2.58;;;;;;;;;;4963376;28;20030;-71
2021/12/17 11:51:59;;;;;;;3.60;2.90;;;;;;;;;;4962776;28;20122;-71
2021/12/17 11:54:29;;;;;;;3.13;2.83;;;;;;;;;;4944294;28;20049;-71
2021/12/17 11:56:55;;;;;;;2.97;2.75;;;;;;;;;;4960840;28;20047;-71
2021/12/17 11:59:23;;;;;;;7.55;3.22;;;;;;;;;;4965883;28;20030;-71
2021/12/17 12:02:01;;;;;;;6.13;3.47;;;;;;;;;;4961944;28;20042;-71
2021/12/17 12:04:33;;;;;;;7.85;3.30;;;;;;;;;;4962916;28;20038;-71
2021/12/17 12:07:06;;;;;;;3.67;3.08;;;;;;;;;;4962864;28;20493;-71
2021/12/17 12:10:00;;;;;;;3.53;2.80;;;;;;;;;;4962979;28;20038;-71
2021/12/17 12:12:35;;;;;;;2.58;2.38;;;;;;;;;;4961666;28;20439;-71
2021/12/17 12:15:19;;;;;;;3.50;2.35;;;;;;;;;;4963766;28;20046;-71
2021/12/17 12:17:57;;;;;;;2.63;2.38;;;;;;;;;;4962911;28;20477;-71
2021/12/17 12:20:50;;;;;;;2.60;2.40;;;;;;;;;;4962434;28;20030;-71
2021/12/17 12:23:16;;;;;;;2.55;2.35;;;;;;;;;;4963435;28;20551;-71
2021/12/17 12:25:42;;;;;;;2.80;2.58;;;;;;;;;;4967327;28;20443;-71
2021/12/17 12:28:07;;;;;;;5.50;2.67;;;;;;;;;;4978840;28;20031;-71
2021/12/17 12:30:41;;;;;;;6.20;2.83;;;;;;;;;;4963767;28;20050;-71
2021/12/17 12:33:07;;;;;;;4.18;2.72;;;;;;;;;;4944877;28;20584;-71
2021/12/17 12:35:33;;;;;;;2.92;2.72;;;;;;;;;;4962752;28;20039;-71
2021/12/17 12:38:18;;;;;;;2.50;2.30;;;;;;;;;;4966504;28;20085;-71
2021/12/17 12:40:50;;;;;;;2.55;2.35;;;;;;;;;;4961176;28;20045;-71
2021/12/17 12:43:33;;;;;;;6.32;2.85;;;;;;;;;;4962789;28;20034;-71
2021/12/17 12:45:58;;;;;;;2.95;2.40;;;;;;;;;;4965483;28;20041;-71
2021/12/17 12:48:32;;;;;;;2.50;2.30;;;;;;;;;;4962744;28;20031;-71
2021/12/17 12:51:18;;;;;;;2.13;2.03;;;;;;;;;;4946508;28;20039;-71
2021/12/17 12:54:06;;;;;;;2.10;1.90;;;;;;;;;;4962375;28;20073;-71
2021/12/17 12:56:31;;;;;;;2.00;1.90;;;;;;;;;;4961179;28;20557;-71
2021/12/17 12:58:57;;;;;;;2.17;1.83;;;;;;;;;;4961474;28;20043;-71
2021/12/17 13:01:22;;;;;;;1.92;1.83;;;;;;;;;;4959815;28;20417;-71
2021/12/17 13:03:48;;;;;;;2.42;2.20;;;;;;;;;;4963737;28;20497;-71
2021/12/17 13:06:17;;;;;;;2.50;2.30;;;;;;;;;;4962051;28;20033;-71
2021/12/17 13:08:44;;;;;;;2.42;2.22;;;;;;;;;;4963821;28;20150;-71
2021/12/17 13:11:09;;;;;;;2.10;1.90;;;;;;;;;;4961054;28;20490;-71
2021/12/17 13:13:45;;;;;;;2.28;2.08;;;;;;;;;;4960930;28;20118;-71
2021/12/17 13:16:19;;;;;;;2.33;2.15;;;;;;;;;;4960903;28;20157;-71
2021/12/17 13:24:08;;;;;;;2.50;2.30;;;;;;;;;;4964652;28;20429;-69
2021/12/17 13:26:34;;;;;;;2.88;2.67;;;;;;;;;;4961933;28;20038;-69
2021/12/17 13:29:14;;;;;;;3.05;2.75;;;;;;;;;;4943697;28;20075;-69
2021/12/17 13:32:00;;;;;;;2.95;2.75;;;;;;;;;;4958276;28;20452;-69
2021/12/17 13:34:48;;;;;;;2.92;2.72;;;;;;;;;;4961535;28;20034;-69
2021/12/17 13:37:27;;;;;;;3.30;3.05;;;;;;;;;;4960283;28;20050;-69
2021/12/17 13:40:00;;;;;;;3.38;3.08;;;;;;;;;;4960206;28;20050;-69
2021/12/17 13:42:30;;;;;;;3.55;3.25;;;;;;;;;;4961106;28;20109;-69
2021/12/17 13:45:08;;;;;;;3.60;3.30;;;;;;;;;;4961867;28;20027;-69
2021/12/17 13:47:35;;;;;;;3.80;3.50;;;;;;;;;;4962597;28;20042;-69
2021/12/17 13:50:09;;;;;;;3.72;3.42;;;;;;;;;;4963633;28;20553;-68
2021/12/17 13:53:11;;;;;;;3.90;3.60;;;;;;;;;;4961974;28;20027;-69
2021/12/17 13:55:41;;;;;;;3.75;3.45;;;;;;;;;;4958763;28;20055;-68
2021/12/17 13:58:08;;;;;;;4.13;3.83;;;;;;;;;;4964272;28;20473;-71
2021/12/17 14:00:36;;;;;;;3.95;3.60;;;;;;;;;;4959131;28;20065;-68
2021/12/17 14:03:02;;;;;;;4.13;3.72;;;;;;;;;;4962251;28;20109;-68
2021/12/17 14:05:39;;;;;;;6.28;4.47;;;;;;;;;;4961349;28;20059;-69
2021/12/17 14:08:07;;;;;;;4.63;4.22;;;;;;;;;;4963178;28;20035;-68
2021/12/17 14:10:35;;;;;;;6.35;4.28;;;;;;;;;;4958305;28;20118;-68
2021/12/17 14:13:01;;;;;;;7.03;4.72;;;;;;;;;;4961879;28;20034;-68
2021/12/17 14:15:29;;;;;;;9.77;5.35;;;;;;;;;;4975625;28;20625;-68
2021/12/17 14:17:57;;;;;;;9.82;5.40;;;;;;;;;;4958732;28;20038;-68
2021/12/17 14:20:23;;;;;;;6.53;5.88;;;;;;;;;;4975974;28;20038;-68
2021/12/17 14:22:53;;;;;;;8.88;6.53;;;;;;;;;;4958402;28;20046;-70
2021/12/17 14:25:29;;;;;;;9.85;7.05;;;;;;;;;;4973081;28;20037;-68
2021/12/17 14:27:55;;;;;;;9.63;7.88;;;;;;;;;;4955626;28;20045;-68
2021/12/17 14:30:24;;;;;;;11.13;7.45;;;;;;;;;;4956484;28;20230;-68
2021/12/17 14:32:49;;;;;;;13.10;7.22;;;;;;;;;;4958348;28;20045;-71
2021/12/17 14:35:15;;;;;;;13.40;9.15;;;;;;;;;;4958317;28;20029;-70
2021/12/17 14:37:51;;;;;;;10.43;8.27;;;;;;;;;;4958994;28;20026;-70
2021/12/17 14:40:31;;;;;;;15.82;10.48;;;;;;;;;;4960035;28;20405;-70
2021/12/17 14:42:57;;;;;;;15.93;10.07;;;;;;;;;;4960474;28;20078;-70
2021/12/17 14:45:33;;;;;;;12.82;9.57;;;;;;;;;;4959050;28;20030;-71
2021/12/17 14:48:20;;;;;;;13.80;8.63;;;;;;;;;;4960232;28;20054;-70
2021/12/17 15:01:51;;;;;;;15.80;11.20;;;;;;;;;;4959137;28;20055;-70
2021/12/17 15:04:17;;;;;;;14.73;11.45;;;;;;;;;;4961887;28;20027;-70
2021/12/17 15:06:42;;;;;;;20.45;13.00;;;;;;;;;;4978892;28;20504;-70
2021/12/17 15:09:07;;;;;;;18.10;13.02;;;;;;;;;;4965533;28;20031;-70
2021/12/17 15:11:40;;;;;;;18.77;13.20;;;;;;;;;;4962752;28;20445;-70
2021/12/17 15:14:06;;;;;;;20.00;13.18;;;;;;;;;;4962040;28;20031;-69
2021/12/17 15:16:31;;;;;;;19.33;13.70;;;;;;;;;;4962443;28;20106;-70
2021/12/17 15:18:56;;;;;;;22.05;13.90;;;;;;;;;;4964086;28;20085;-69
2021/12/17 15:21:22;;;;;;;21.70;14.23;;;;;;;;;;4977755;28;20042;-70
2021/12/17 15:23:47;;;;;;;23.20;14.35;;;;;;;;;;4963209;28;20061;-70
2021/12/17 15:26:12;;;;;;;20.85;14.35;;;;;;;;;;4964237;28;20050;-70
2021/12/17 15:28:38;;;;;;;22.38;14.70;;;;;;;;;;4965025;28;20038;-70
2021/12/17 15:31:06;;;;;;;25.45;13.80;;;;;;;;;;4963790;28;20125;-70
2021/12/17 15:33:31;;;;;;;19.33;14.25;;;;;;;;;;4963923;28;20042;-70
2021/12/17 15:35:56;;;;;;;20.55;14.10;;;;;;;;;;4962301;28;20615;-70
2021/12/17 15:38:23;;;;;;;24.27;15.93;;;;;;;;;;4964254;28;20030;-70
2021/12/17 15:40:49;;;;;;;23.73;15.57;;;;;;;;;;4945458;28;20030;-70
2021/12/17 15:43:15;;;;;;;24.20;15.15;;;;;;;;;;4963425;28;20177;-70
2021/12/17 15:45:41;;;;;;;21.73;14.95;;;;;;;;;;4964266;28;20221;-70
2021/12/17 15:48:07;;;;;;;27.40;15.77;;;;;;;;;;4965192;28;20054;-70
2021/12/17 15:50:33;;;;;;;21.70;14.50;;;;;;;;;;4946960;28;20144;-69
2021/12/17 15:52:59;;;;;;;23.33;15.13;;;;;;;;;;4945042;28;20110;-67
2021/12/17 15:55:25;;;;;;;25.77;15.80;;;;;;;;;;4963056;28;20050;-67
2021/12/17 15:57:53;;;;;;;21.40;15.05;;;;;;;;;;4963131;28;20486;-68
2021/12/17 16:00:19;;;;;;;22.50;15.88;;;;;;;;;;4967131;28;20030;-68
2021/12/17 16:02:44;;;;;;;23.05;14.90;;;;;;;;;;4973367;28;20108;-67
2021/12/17 16:05:11;;;;;;;24.55;15.65;;;;;;;;;;4973760;28;20534;-68
2021/12/17 16:07:37;;;;;;;22.98;15.30;;;;;;;;;;4970784;28;20397;-68
2021/12/17 16:23:19;;;;;;;24.17;15.98;;;;;;;;;;4970662;28;20029;-67
2021/12/17 16:25:44;;;;;;;24.08;15.75;;;;;;;;;;4967045;28;20568;-68
2021/12/17 16:28:10;;;;;;;22.08;14.55;;;;;;;;;;4966317;28;20509;-69
2021/12/17 16:30:35;;;;;;;21.38;15.60;;;;;;;;;;4972093;28;20756;-70
2021/12/17 16:33:00;;;;;;;25.00;16.27;;;;;;;;;;4965729;28;20502;-69
2021/12/17 16:35:26;;;;;;;28.98;17.42;;;;;;;;;;4961747;28;20137;-70
2021/12/17 16:37:51;;;;;;;25.88;15.25;;;;;;;;;;4965381;28;20035;-69
2021/12/17 16:40:16;;;;;;;25.85;16.85;;;;;;;;;;4965579;28;20031;-69
2021/12/17 16:42:42;;;;;;;25.92;15.43;;;;;;;;;;4963171;28;20113;-70
2021/12/17 16:45:22;;;;;;;23.00;15.63;;;;;;;;;;4966142;28;20129;-69
2021/12/17 16:47:47;;;;;;;23.33;15.43;;;;;;;;;;4949325;28;20030;-69
2021/12/17 16:50:13;;;;;;;22.00;14.50;;;;;;;;;;4976494;28;20027;-70
2021/12/17 16:52:39;;;;;;;20.55;15.18;;;;;;;;;;4965826;28;20121;-69
2021/12/17 16:55:05;;;;;;;24.40;16.05;;;;;;;;;;4963379;28;20868;-69
2021/12/17 16:57:31;;;;;;;23.83;16.08;;;;;;;;;;4963642;28;20114;-69
2021/12/17 16:59:57;;;;;;;20.77;14.23;;;;;;;;;;4966609;28;20081;-70
2021/12/17 17:02:22;;;;;;;20.70;14.90;;;;;;;;;;4962396;28;20046;-69
2021/12/17 17:04:47;;;;;;;22.17;14.73;;;;;;;;;;4961142;28;20057;-69
2021/12/17 17:07:13;;;;;;;21.25;14.70;;;;;;;;;;4967089;28;20429;-70
2021/12/17 17:09:38;;;;;;;18.20;12.73;;;;;;;;;;4963233;28;20038;-69
2021/12/17 17:12:06;;;;;;;21.98;13.52;;;;;;;;;;4962871;28;20114;-69
2021/12/17 17:14:34;;;;;;;22.40;14.82;;;;;;;;;;4963221;28;20131;-70
2021/12/17 17:17:00;;;;;;;25.77;15.88;;;;;;;;;;4934278;28;20046;-69
2021/12/17 17:19:26;;;;;;;27.73;18.48;;;;;;;;;;4961778;28;20034;-69
2021/12/17 17:21:51;;;;;;;24.60;16.27;;;;;;;;;;4961960;28;20676;-70
2021/12/17 17:24:18;;;;;;;21.17;15.25;;;;;;;;;;4962779;28;20055;-69
2021/12/17 17:26:44;;;;;;;19.52;13.60;;;;;;;;;;4966462;28;20565;-69
2021/12/17 17:29:09;;;;;;;21.45;14.52;;;;;;;;;;4962763;28;20038;-70
2021/12/17 17:31:35;;;;;;;20.30;14.43;;;;;;;;;;4967476;28;20035;-70
2021/12/17 17:34:00;;;;;;;19.50;14.02;;;;;;;;;;4963106;28;20374;-70
2021/12/17 17:36:25;;;;;;;20.27;13.65;;;;;;;;;;4948864;28;20037;-70
2021/12/17 17:38:51;;;;;;;22.30;14.98;;;;;;;;;;4963925;28;20041;-69
2021/12/17 17:41:18;;;;;;;18.92;13.68;;;;;;;;;;4961339;28;20023;-69
2021/12/17 17:43:44;;;;;;;23.40;15.35;;;;;;;;;;4962719;28;20023;-69
2021/12/17 17:46:09;;;;;;;19.50;13.57;;;;;;;;;;4963008;28;20031;-70
2021/12/17 17:48:34;;;;;;;20.95;14.82;;;;;;;;;;4963544;28;20035;-70